River Falls, Wisconsin
Current Conditions -  °F | °C
As of 4:10 AM on Sunday 25 Jan 2015 (Local Time) from K21D Reporting Station
Overcast Overcast  
Wind Chill: -7°   Ceiling: 1900
Heat Index: -1°   Visibility: 10mi
Dew Point: -5°   Wind: 16mph
Humidity: 75%   Direction: 30°NNE
Pressure: 29.82"   Gusts: NA
Location:  44.85°N, 92.63°W
Report Text: K21D 251010Z AUTO 03014KT 10SM OVC019 M01/M05 A2982 RMK AO2
Loading
Personal Weather Stations






























Interactive Weather Map New forecast layout! Learn more

10-Day Weather Forecast

Advertisements
Track Severe Weather on mobile